Main page
METAR-TAF:

METAR-TAF

Airports :

Banja Luka International Airport

Banja Luka, Bosnia and Herzegovina

latitude: 44-47N, longitude: 017-13E, elevation: 156 m

Current weather observation

The report was made 43 minutes ago, at 06:30 UTC
Wind 4 kt from the Northwest, varying between West and North
Temperature 5°C
Humidity 60%
Pressure 1023 hPa
Visibility 10 km or more
no clouds below 1500 m and no cumulonimbus

METAR: LQBK 150630Z 32004KT 280V360 CAVOK 05/M02 Q1023 NOSIG

Time: 09:13 (07:13 UTC)

Forecast

The report was made 2 hours and 13 minutes ago, at 05:00 UTC
Forecast valid from 15 at 06 UTC to 16 at 06 UTC
Wind 5 kt from the South
Visibility 10 km or more
no clouds below 1500 m and no cumulonimbus
Probability 40% :
Temporary
from 15 at 08 UTC to 15 at 15 UTC
Wind 10 kt from the North/Northwest

TAF: LQBK 150500Z 1506/1606 18005KT CAVOK TX11/1514Z TNM01/1604Z PROB40 TEMPO 1508/1515 34010KT

Weather observations and forecasts of more than 4000 airports (METAR and TAF reports).

The available stations are represented by yellow and red dots on the map.

Hover mouse over dot to see the name of the station.

Then click to see weather observations and forecasts.

To change the map : click on the green buttons with a black cross to zoom in, on the green button with a dash to zoom out, or on the green arrows for adjacent maps.


METAR-TAF: